Time;durP1;ratioP1;P1;durP2;ratioP2;P2;SDS_P1;SDS_P2;PMS_P1;PMS_P2;Temp;Humidity;BMP_temperature;BMP_pressure;BME280_temperature;BME280_humidity;BME280_pressure;Samples;Min_cycle;Max_cycle;Signal;HPM_P1;HPM_P2
2021/03/03 00:01:00;;;;;;;34.78;20.48;;;;;;;;;;4968338;28;20015;-73
2021/03/03 00:03:26;;;;;;;31.88;19.45;;;;;;;;;;4970834;28;20058;-74
2021/03/03 00:05:52;;;;;;;34.22;18.60;;;;;;;;;;4971591;28;20058;-74
2021/03/03 00:08:18;;;;;;;30.40;18.52;;;;;;;;;;4971801;28;20109;-74
2021/03/03 00:10:44;;;;;;;36.05;19.17;;;;;;;;;;4972550;28;20035;-74
2021/03/03 00:13:09;;;;;;;33.53;17.80;;;;;;;;;;4972125;28;20172;-74
2021/03/03 00:15:35;;;;;;;33.70;18.73;;;;;;;;;;4957198;28;20031;-74
2021/03/03 00:18:01;;;;;;;34.40;16.88;;;;;;;;;;4959181;28;20023;-74
2021/03/03 00:20:27;;;;;;;32.63;18.50;;;;;;;;;;4972325;28;20027;-74
2021/03/03 00:22:53;;;;;;;31.60;16.92;;;;;;;;;;4957366;28;20409;-75
2021/03/03 00:25:19;;;;;;;31.40;18.30;;;;;;;;;;4971521;28;20034;-75
2021/03/03 00:27:45;;;;;;;34.13;20.75;;;;;;;;;;4971437;28;20037;-75
2021/03/03 00:30:12;;;;;;;39.92;20.90;;;;;;;;;;4973683;28;20454;-75
2021/03/03 00:32:38;;;;;;;33.95;18.80;;;;;;;;;;4971847;28;20058;-75
2021/03/03 00:35:04;;;;;;;32.80;18.13;;;;;;;;;;4973576;28;20537;-75
2021/03/03 00:37:30;;;;;;;32.50;19.23;;;;;;;;;;4972090;28;20039;-75
2021/03/03 00:39:56;;;;;;;38.83;21.23;;;;;;;;;;4971511;28;20081;-75
2021/03/03 00:42:22;;;;;;;37.92;20.67;;;;;;;;;;4971030;28;20031;-75
2021/03/03 00:44:48;;;;;;;40.80;20.83;;;;;;;;;;4967790;28;20091;-75
2021/03/03 00:47:13;;;;;;;37.38;19.27;;;;;;;;;;4961181;28;20567;-75
2021/03/03 00:49:39;;;;;;;33.42;18.90;;;;;;;;;;4957578;28;20042;-75
2021/03/03 00:52:05;;;;;;;33.35;19.63;;;;;;;;;;4971383;28;20030;-72
2021/03/03 00:54:31;;;;;;;37.40;21.10;;;;;;;;;;4958400;28;20031;-72
2021/03/03 00:56:57;;;;;;;35.65;18.55;;;;;;;;;;4970488;28;20023;-72
2021/03/03 00:59:23;;;;;;;29.98;18.70;;;;;;;;;;4971611;28;20031;-72
2021/03/03 01:01:49;;;;;;;34.28;19.67;;;;;;;;;;4971057;28;20070;-73
2021/03/03 01:04:15;;;;;;;37.28;19.23;;;;;;;;;;4971640;28;20130;-74
2021/03/03 01:06:41;;;;;;;34.72;19.13;;;;;;;;;;4957424;28;20493;-74
2021/03/03 01:09:07;;;;;;;33.80;18.75;;;;;;;;;;4970838;28;20030;-75
2021/03/03 01:11:33;;;;;;;30.73;17.67;;;;;;;;;;4970432;28;20117;-74
2021/03/03 01:13:59;;;;;;;36.42;19.63;;;;;;;;;;4969744;28;20608;-75
2021/03/03 01:16:25;;;;;;;36.17;20.95;;;;;;;;;;4971050;28;20066;-74
2021/03/03 01:18:50;;;;;;;33.30;18.77;;;;;;;;;;4970902;28;20523;-74
2021/03/03 01:21:16;;;;;;;33.55;18.98;;;;;;;;;;4969870;28;20042;-74
2021/03/03 01:23:42;;;;;;;37.97;21.55;;;;;;;;;;4970830;28;20052;-74
2021/03/03 01:26:08;;;;;;;37.17;20.25;;;;;;;;;;4970672;28;20037;-74
2021/03/03 01:28:34;;;;;;;35.47;19.92;;;;;;;;;;4970422;28;20396;-75
2021/03/03 01:31:00;;;;;;;33.60;19.45;;;;;;;;;;4970182;28;20031;-74
2021/03/03 01:33:27;;;;;;;34.55;18.73;;;;;;;;;;4971135;28;20034;-74
2021/03/03 01:35:53;;;;;;;36.28;19.15;;;;;;;;;;4971722;28;20054;-74
2021/03/03 01:38:19;;;;;;;38.97;19.95;;;;;;;;;;4970768;28;20481;-74
2021/03/03 01:40:45;;;;;;;33.22;19.70;;;;;;;;;;4986659;28;20465;-74
2021/03/03 01:43:11;;;;;;;35.95;20.27;;;;;;;;;;4970827;28;20041;-74
2021/03/03 01:45:37;;;;;;;39.50;20.33;;;;;;;;;;4969698;28;20638;-74
2021/03/03 01:48:03;;;;;;;41.40;19.92;;;;;;;;;;4969984;28;20039;-74
2021/03/03 01:50:29;;;;;;;38.05;20.77;;;;;;;;;;4970542;28;20044;-75
2021/03/03 01:52:55;;;;;;;36.63;18.88;;;;;;;;;;4969536;28;20070;-74
2021/03/03 01:55:21;;;;;;;33.83;18.00;;;;;;;;;;4969892;28;20032;-74
2021/03/03 01:57:47;;;;;;;37.63;20.55;;;;;;;;;;4970488;28;20026;-75
2021/03/03 02:00:14;;;;;;;31.33;18.40;;;;;;;;;;4970181;28;20081;-74
2021/03/03 02:02:40;;;;;;;33.25;19.08;;;;;;;;;;4969888;28;20126;-74
2021/03/03 02:05:06;;;;;;;31.52;18.65;;;;;;;;;;4970108;28;20105;-74
2021/03/03 02:07:35;;;;;;;32.22;18.20;;;;;;;;;;4969814;28;20303;-74
2021/03/03 02:10:01;;;;;;;40.45;19.08;;;;;;;;;;4969627;28;20409;-74
2021/03/03 02:12:42;;;;;;;35.45;18.23;;;;;;;;;;4969958;28;20049;-74
2021/03/03 02:15:08;;;;;;;30.77;18.33;;;;;;;;;;4968525;28;20114;-74
2021/03/03 02:17:35;;;;;;;38.30;19.48;;;;;;;;;;4969518;28;20420;-74
2021/03/03 02:20:02;;;;;;;36.70;20.58;;;;;;;;;;4969222;28;20539;-74
2021/03/03 02:22:38;;;;;;;32.75;17.80;;;;;;;;;;4969898;28;20409;-74
2021/03/03 02:25:17;;;;;;;35.78;18.98;;;;;;;;;;4968851;28;20030;-75
2021/03/03 02:27:43;;;;;;;39.42;22.20;;;;;;;;;;4969916;28;20073;-74
2021/03/03 02:30:09;;;;;;;37.25;21.65;;;;;;;;;;4968560;28;20030;-75
2021/03/03 02:32:35;;;;;;;38.35;20.25;;;;;;;;;;4969218;28;20366;-74
2021/03/03 02:35:01;;;;;;;35.75;19.83;;;;;;;;;;4967787;28;20037;-74
2021/03/03 02:37:27;;;;;;;36.95;19.50;;;;;;;;;;4970090;28;20034;-74
2021/03/03 02:39:53;;;;;;;34.00;19.92;;;;;;;;;;4970976;28;20102;-74
2021/03/03 02:42:20;;;;;;;37.08;19.80;;;;;;;;;;4969078;28;20058;-74
2021/03/03 02:44:48;;;;;;;34.33;18.08;;;;;;;;;;4979327;28;20489;-74
2021/03/03 02:47:14;;;;;;;36.33;19.08;;;;;;;;;;4967044;28;20477;-74
2021/03/03 02:49:40;;;;;;;37.67;19.65;;;;;;;;;;4984140;28;20045;-75
2021/03/03 02:52:06;;;;;;;35.70;18.98;;;;;;;;;;4968740;28;20440;-74
2021/03/03 02:54:32;;;;;;;32.50;18.27;;;;;;;;;;4969211;28;20038;-74
2021/03/03 02:56:58;;;;;;;32.10;17.58;;;;;;;;;;4969260;28;20377;-74
2021/03/03 02:59:33;;;;;;;36.13;19.15;;;;;;;;;;4965598;28;20027;-74
2021/03/03 03:01:59;;;;;;;39.75;19.92;;;;;;;;;;4960304;28;20140;-74
2021/03/03 03:04:28;;;;;;;37.00;19.75;;;;;;;;;;4969074;28;20035;-74
2021/03/03 03:06:54;;;;;;;36.78;20.40;;;;;;;;;;4968964;28;20034;-74
2021/03/03 03:09:20;;;;;;;30.13;18.55;;;;;;;;;;4971536;28;20485;-74
2021/03/03 03:11:48;;;;;;;43.45;20.33;;;;;;;;;;4968764;28;20030;-74
2021/03/03 03:14:15;;;;;;;36.00;20.65;;;;;;;;;;4968697;28;20459;-75
2021/03/03 03:16:42;;;;;;;38.45;20.85;;;;;;;;;;4968955;28;20084;-74
2021/03/03 03:19:11;;;;;;;45.60;21.38;;;;;;;;;;4967376;28;20599;-74
2021/03/03 03:21:39;;;;;;;39.30;21.33;;;;;;;;;;4968548;28;20487;-74
2021/03/03 03:24:05;;;;;;;36.08;18.73;;;;;;;;;;4968638;28;20045;-74
2021/03/03 03:26:32;;;;;;;42.47;20.05;;;;;;;;;;4967794;28;20046;-74
2021/03/03 03:28:58;;;;;;;36.10;19.52;;;;;;;;;;4966035;28;20038;-74
2021/03/03 03:31:24;;;;;;;35.80;18.75;;;;;;;;;;4967523;28;20503;-75
2021/03/03 03:33:52;;;;;;;32.63;18.27;;;;;;;;;;4967661;28;20488;-74
2021/03/03 03:36:18;;;;;;;37.05;20.75;;;;;;;;;;4968582;28;20110;-74
2021/03/03 03:38:44;;;;;;;35.88;20.08;;;;;;;;;;4974069;28;20102;-74
2021/03/03 03:41:10;;;;;;;36.67;19.95;;;;;;;;;;4974885;28;20602;-74
2021/03/03 03:43:36;;;;;;;39.08;20.85;;;;;;;;;;4975372;28;20038;-74
2021/03/03 03:46:02;;;;;;;38.35;20.85;;;;;;;;;;4976530;28;20631;-74
2021/03/03 03:48:30;;;;;;;38.17;20.10;;;;;;;;;;4975695;28;20023;-74
2021/03/03 03:50:56;;;;;;;37.50;19.90;;;;;;;;;;4975569;28;20101;-74
2021/03/03 03:53:23;;;;;;;46.42;24.05;;;;;;;;;;4974698;28;20435;-74
2021/03/03 03:55:49;;;;;;;43.60;22.20;;;;;;;;;;4974743;28;20035;-74
2021/03/03 03:58:15;;;;;;;38.25;22.42;;;;;;;;;;4974974;28;20122;-74
2021/03/03 04:00:41;;;;;;;38.33;21.02;;;;;;;;;;4973114;28;20109;-74
2021/03/03 04:03:07;;;;;;;40.75;22.27;;;;;;;;;;4973445;28;20311;-75
2021/03/03 04:05:33;;;;;;;39.05;21.77;;;;;;;;;;4974989;28;20102;-75
2021/03/03 04:07:58;;;;;;;40.38;20.45;;;;;;;;;;4974517;28;20563;-74
2021/03/03 04:10:26;;;;;;;40.10;20.80;;;;;;;;;;4974881;28;20381;-74
2021/03/03 04:12:52;;;;;;;40.75;21.67;;;;;;;;;;4974073;28;20097;-74
2021/03/03 04:15:18;;;;;;;36.22;20.33;;;;;;;;;;4974959;28;20023;-74
2021/03/03 04:17:45;;;;;;;39.83;20.95;;;;;;;;;;4974126;28;20093;-74
2021/03/03 04:20:11;;;;;;;36.08;20.77;;;;;;;;;;4974759;28;20113;-74
2021/03/03 04:22:38;;;;;;;34.72;20.00;;;;;;;;;;4973059;28;20571;-74
2021/03/03 04:25:05;;;;;;;37.28;21.05;;;;;;;;;;4974263;28;20110;-74
2021/03/03 04:27:31;;;;;;;38.88;20.55;;;;;;;;;;4982422;28;20034;-74
2021/03/03 04:29:57;;;;;;;36.65;19.58;;;;;;;;;;4989012;28;20078;-75
2021/03/03 04:32:23;;;;;;;36.40;20.85;;;;;;;;;;4989018;28;20039;-75
2021/03/03 04:34:49;;;;;;;36.78;21.88;;;;;;;;;;4974531;28;20035;-74
2021/03/03 04:37:15;;;;;;;41.75;20.88;;;;;;;;;;4972432;28;20058;-75
2021/03/03 04:39:41;;;;;;;40.70;22.20;;;;;;;;;;4972457;28;20023;-74
2021/03/03 04:42:07;;;;;;;39.88;21.33;;;;;;;;;;4974668;28;20061;-74
2021/03/03 04:44:33;;;;;;;37.80;21.15;;;;;;;;;;4974346;28;20106;-75
2021/03/03 04:46:59;;;;;;;34.53;20.33;;;;;;;;;;4974483;28;20033;-75
2021/03/03 04:49:25;;;;;;;35.13;20.00;;;;;;;;;;4969903;28;20031;-74
2021/03/03 04:51:51;;;;;;;28.67;18.33;;;;;;;;;;4972800;28;20081;-74
2021/03/03 04:54:17;;;;;;;32.60;19.10;;;;;;;;;;4972353;28;20030;-75
2021/03/03 04:56:43;;;;;;;30.95;18.63;;;;;;;;;;4977541;28;20376;-74
2021/03/03 04:59:09;;;;;;;35.30;19.10;;;;;;;;;;4969937;28;20035;-75
2021/03/03 05:01:35;;;;;;;38.25;20.77;;;;;;;;;;4971093;28;20477;-74
2021/03/03 05:04:01;;;;;;;41.53;21.83;;;;;;;;;;4971244;28;20030;-75
2021/03/03 05:06:28;;;;;;;37.70;21.88;;;;;;;;;;4970801;28;20030;-74
2021/03/03 05:08:54;;;;;;;40.17;22.00;;;;;;;;;;4969495;28;20041;-75
2021/03/03 05:11:22;;;;;;;43.85;23.05;;;;;;;;;;4970488;28;20088;-74
2021/03/03 05:13:48;;;;;;;42.83;21.30;;;;;;;;;;4971060;28;20444;-74
2021/03/03 05:16:14;;;;;;;34.65;19.27;;;;;;;;;;4971063;28;20038;-74
2021/03/03 05:18:40;;;;;;;35.25;19.63;;;;;;;;;;4970297;28;20035;-74
2021/03/03 05:21:06;;;;;;;36.40;19.95;;;;;;;;;;4970880;28;20113;-74
2021/03/03 05:23:33;;;;;;;35.08;20.48;;;;;;;;;;4970378;28;20035;-75
2021/03/03 05:25:59;;;;;;;34.20;19.63;;;;;;;;;;4971151;28;20118;-75
2021/03/03 05:28:25;;;;;;;38.58;21.48;;;;;;;;;;4970322;28;20031;-74
2021/03/03 05:30:52;;;;;;;40.63;21.20;;;;;;;;;;4970978;28;20038;-74
2021/03/03 05:33:25;;;;;;;46.25;23.90;;;;;;;;;;4970451;28;20034;-74
2021/03/03 05:35:52;;;;;;;42.75;23.33;;;;;;;;;;4970681;28;20082;-74
2021/03/03 05:38:18;;;;;;;57.35;27.50;;;;;;;;;;4970323;28;20026;-74
2021/03/03 05:40:47;;;;;;;69.93;29.38;;;;;;;;;;4969873;28;20029;-74
2021/03/03 05:43:14;;;;;;;61.83;24.55;;;;;;;;;;4970649;28;20035;-75
2021/03/03 05:45:44;;;;;;;40.53;18.35;;;;;;;;;;4970080;28;20085;-74
2021/03/03 05:48:14;;;;;;;48.38;17.13;;;;;;;;;;4970792;28;20054;-74
2021/03/03 05:50:43;;;;;;;59.60;18.80;;;;;;;;;;4968314;28;20564;-74
2021/03/03 05:53:09;;;;;;;38.00;16.05;;;;;;;;;;4970792;28;20097;-74
2021/03/03 05:55:35;;;;;;;34.38;13.98;;;;;;;;;;4970812;28;20109;-75
2021/03/03 05:58:02;;;;;;;41.97;13.57;;;;;;;;;;4971016;28;20027;-75
2021/03/03 06:00:30;;;;;;;83.07;14.75;;;;;;;;;;4959091;28;20027;-74
2021/03/03 06:02:57;;;;;;;57.97;13.65;;;;;;;;;;4968915;28;20035;-75
2021/03/03 06:05:23;;;;;;;56.60;13.88;;;;;;;;;;4969849;28;20023;-74
2021/03/03 06:07:49;;;;;;;51.50;13.63;;;;;;;;;;4967653;28;20037;-74
2021/03/03 06:10:15;;;;;;;75.07;15.85;;;;;;;;;;4958596;28;20034;-75
2021/03/03 06:12:41;;;;;;;60.55;13.98;;;;;;;;;;4970018;28;20046;-75
2021/03/03 06:15:07;;;;;;;71.82;15.80;;;;;;;;;;4968501;28;20027;-74
2021/03/03 06:17:33;;;;;;;51.08;13.88;;;;;;;;;;4969906;28;20218;-75
2021/03/03 06:19:59;;;;;;;34.08;14.05;;;;;;;;;;4969478;28;20379;-75
2021/03/03 06:22:26;;;;;;;51.50;14.55;;;;;;;;;;4969904;28;20129;-74
2021/03/03 06:24:56;;;;;;;66.75;15.02;;;;;;;;;;4984395;28;20488;-74
2021/03/03 06:27:23;;;;;;;47.60;14.77;;;;;;;;;;4969529;28;20453;-75
2021/03/03 06:30:02;;;;;;;140.13;19.27;;;;;;;;;;4955757;28;20062;-75
2021/03/03 06:32:28;;;;;;;59.53;16.10;;;;;;;;;;4956254;28;20073;-75
2021/03/03 06:34:54;;;;;;;68.85;16.33;;;;;;;;;;4969382;28;20467;-74
2021/03/03 06:37:20;;;;;;;26.77;14.88;;;;;;;;;;4968835;28;20039;-75
2021/03/03 06:39:46;;;;;;;89.53;17.67;;;;;;;;;;4969241;28;20027;-75
2021/03/03 06:42:24;;;;;;;32.85;14.55;;;;;;;;;;4969391;28;20031;-74
2021/03/03 06:44:54;;;;;;;30.60;15.05;;;;;;;;;;4967974;28;20046;-74
2021/03/03 06:47:21;;;;;;;37.03;15.15;;;;;;;;;;4968844;28;20508;-75
2021/03/03 06:49:47;;;;;;;43.83;14.88;;;;;;;;;;4969342;28;20031;-74
2021/03/03 06:52:13;;;;;;;50.83;15.07;;;;;;;;;;4968373;28;20035;-75
2021/03/03 06:54:39;;;;;;;45.50;15.82;;;;;;;;;;4967897;28;20034;-75
2021/03/03 06:57:07;;;;;;;34.95;15.70;;;;;;;;;;4969318;28;20031;-75
2021/03/03 06:59:33;;;;;;;38.08;15.85;;;;;;;;;;4966600;28;20035;-75
2021/03/03 07:02:00;;;;;;;40.17;15.95;;;;;;;;;;4970609;28;20034;-74
2021/03/03 07:04:30;;;;;;;77.07;18.27;;;;;;;;;;4968446;28;20096;-75
2021/03/03 07:06:58;;;;;;;51.90;17.67;;;;;;;;;;4968155;28;20038;-74
2021/03/03 07:09:24;;;;;;;76.32;17.63;;;;;;;;;;4976379;28;20388;-73
2021/03/03 07:11:51;;;;;;;66.18;18.27;;;;;;;;;;4967431;28;20026;-73
2021/03/03 07:14:18;;;;;;;56.25;18.60;;;;;;;;;;4968164;28;20480;-73
2021/03/03 07:17:00;;;;;;;83.35;19.88;;;;;;;;;;4968903;28;20092;-73
2021/03/03 07:19:25;;;;;;;115.20;21.65;;;;;;;;;;4972100;28;20485;-73
2021/03/03 07:21:51;;;;;;;108.43;22.52;;;;;;;;;;4974920;28;20030;-73
2021/03/03 07:24:18;;;;;;;38.50;17.67;;;;;;;;;;4974275;28;20062;-73
2021/03/03 07:26:44;;;;;;;48.28;19.55;;;;;;;;;;4971667;28;20042;-73
2021/03/03 07:29:10;;;;;;;128.75;25.30;;;;;;;;;;4971172;28;20457;-72
2021/03/03 07:31:37;;;;;;;108.05;21.25;;;;;;;;;;4968399;28;20752;-73
2021/03/03 07:34:03;;;;;;;49.20;20.50;;;;;;;;;;4971033;28;20436;-74
2021/03/03 07:36:30;;;;;;;51.85;18.73;;;;;;;;;;4980987;28;20031;-74
2021/03/03 07:38:56;;;;;;;58.17;20.50;;;;;;;;;;4970889;28;20034;-74
2021/03/03 07:41:22;;;;;;;61.65;20.92;;;;;;;;;;4970103;28;20026;-74
2021/03/03 07:43:50;;;;;;;115.05;25.23;;;;;;;;;;4971329;28;20539;-74
2021/03/03 07:46:16;;;;;;;52.13;22.08;;;;;;;;;;4968504;28;20433;-73
2021/03/03 07:48:45;;;;;;;107.75;26.05;;;;;;;;;;4966831;28;20031;-73
2021/03/03 07:51:11;;;;;;;119.47;27.92;;;;;;;;;;4968524;28;20027;-73
2021/03/03 07:53:39;;;;;;;100.57;25.58;;;;;;;;;;4974870;28;20062;-73
2021/03/03 07:56:07;;;;;;;48.83;24.70;;;;;;;;;;4967144;28;20480;-73
2021/03/03 07:58:33;;;;;;;85.35;27.25;;;;;;;;;;4968724;28;20061;-73
2021/03/03 08:00:59;;;;;;;73.80;25.85;;;;;;;;;;4968012;28;20023;-73
2021/03/03 08:03:44;;;;;;;61.90;28.48;;;;;;;;;;4966675;28;20027;-73
2021/03/03 08:06:31;;;;;;;69.90;27.45;;;;;;;;;;4968058;28;20069;-73
2021/03/03 08:09:04;;;;;;;120.80;31.05;;;;;;;;;;4969864;28;20019;-73
2021/03/03 08:11:29;;;;;;;63.20;28.58;;;;;;;;;;4976224;28;20077;-72
2021/03/03 08:13:55;;;;;;;95.15;31.52;;;;;;;;;;4969653;28;20047;-73
2021/03/03 08:16:21;;;;;;;89.68;34.30;;;;;;;;;;4967937;28;20060;-73
2021/03/03 08:18:47;;;;;;;87.18;30.77;;;;;;;;;;4967923;28;20038;-72
2021/03/03 08:21:13;;;;;;;94.45;32.65;;;;;;;;;;4966268;28;20069;-73
2021/03/03 08:23:39;;;;;;;71.88;32.25;;;;;;;;;;4968978;28;20039;-73
2021/03/03 08:26:05;;;;;;;79.28;32.03;;;;;;;;;;4971818;28;20065;-73
2021/03/03 08:28:39;;;;;;;70.43;32.88;;;;;;;;;;4971672;28;20449;-73
2021/03/03 08:31:14;;;;;;;107.75;33.28;;;;;;;;;;4970990;28;20134;-73
2021/03/03 08:33:40;;;;;;;189.57;38.08;;;;;;;;;;4986186;28;20469;-73
2021/03/03 08:36:07;;;;;;;88.55;34.05;;;;;;;;;;4970588;28;20054;-74
2021/03/03 08:38:33;;;;;;;71.28;32.97;;;;;;;;;;4984008;28;20035;-73
2021/03/03 08:41:14;;;;;;;108.20;35.90;;;;;;;;;;4971833;28;20468;-73
2021/03/03 08:43:41;;;;;;;61.65;33.33;;;;;;;;;;4971376;28;20027;-73
2021/03/03 08:46:22;;;;;;;112.53;35.65;;;;;;;;;;4986666;28;20041;-73
2021/03/03 08:49:07;;;;;;;72.63;30.33;;;;;;;;;;4987848;28;20150;-73
2021/03/03 08:51:37;;;;;;;83.22;31.45;;;;;;;;;;4990240;28;20101;-73
2021/03/03 08:54:15;;;;;;;97.20;33.65;;;;;;;;;;4990769;28;20041;-73
2021/03/03 08:56:54;;;;;;;58.97;30.52;;;;;;;;;;4990792;28;20060;-73
2021/03/03 08:59:31;;;;;;;102.35;34.45;;;;;;;;;;4990338;28;20057;-74
2021/03/03 09:02:05;;;;;;;99.25;35.58;;;;;;;;;;4982124;28;20030;-73
2021/03/03 09:04:41;;;;;;;125.35;37.88;;;;;;;;;;4989854;28;20072;-74
2021/03/03 09:07:13;;;;;;;88.68;33.80;;;;;;;;;;4990249;28;20503;-74
2021/03/03 09:09:49;;;;;;;69.25;35.15;;;;;;;;;;4989773;28;20563;-72
2021/03/03 09:12:16;;;;;;;71.65;35.85;;;;;;;;;;4990708;28;20026;-73
2021/03/03 09:14:43;;;;;;;73.10;34.15;;;;;;;;;;4987956;28;20049;-72
2021/03/03 09:17:10;;;;;;;70.93;37.42;;;;;;;;;;4989656;28;20550;-74
2021/03/03 09:19:37;;;;;;;82.78;39.95;;;;;;;;;;4989294;28;20028;-73
2021/03/03 09:22:22;;;;;;;76.88;36.78;;;;;;;;;;4989311;28;20033;-73
2021/03/03 09:24:48;;;;;;;73.45;38.50;;;;;;;;;;4990428;28;20030;-73
2021/03/03 09:27:15;;;;;;;67.90;36.42;;;;;;;;;;4991579;28;20504;-74
2021/03/03 09:29:42;;;;;;;72.18;38.65;;;;;;;;;;4983337;28;20047;-72
2021/03/03 09:32:18;;;;;;;85.28;38.92;;;;;;;;;;4987441;28;20026;-73
2021/03/03 09:34:53;;;;;;;79.03;38.60;;;;;;;;;;4996130;28;20508;-72
2021/03/03 09:37:19;;;;;;;80.70;40.05;;;;;;;;;;4987918;28;20551;-72
2021/03/03 09:39:55;;;;;;;76.22;38.53;;;;;;;;;;4990019;28;20034;-72
2021/03/03 09:42:21;;;;;;;69.78;40.60;;;;;;;;;;4985027;28;20026;-73
2021/03/03 09:44:57;;;;;;;73.88;40.28;;;;;;;;;;4989579;28;20038;-73
2021/03/03 09:47:30;;;;;;;66.43;38.03;;;;;;;;;;4989642;28;20069;-73
2021/03/03 09:49:57;;;;;;;67.70;36.10;;;;;;;;;;4990050;28;20034;-73
2021/03/03 09:52:23;;;;;;;88.47;39.67;;;;;;;;;;4987570;28;20054;-75
2021/03/03 09:54:49;;;;;;;74.97;39.42;;;;;;;;;;4989234;28;20465;-74
2021/03/03 09:57:22;;;;;;;71.97;38.47;;;;;;;;;;4988332;28;20037;-73
2021/03/03 09:59:49;;;;;;;76.88;38.20;;;;;;;;;;4981335;28;20049;-73
2021/03/03 10:02:19;;;;;;;66.80;37.33;;;;;;;;;;4988902;28;20023;-72
2021/03/03 10:04:46;;;;;;;66.47;37.65;;;;;;;;;;4989016;28;20373;-73
2021/03/03 10:07:13;;;;;;;69.07;37.13;;;;;;;;;;4979951;28;20603;-73
2021/03/03 10:09:40;;;;;;;69.82;37.10;;;;;;;;;;4989447;28;20041;-73
2021/03/03 10:12:07;;;;;;;73.30;38.45;;;;;;;;;;4989116;28;20038;-74
2021/03/03 10:14:33;;;;;;;71.35;36.17;;;;;;;;;;4985629;28;20476;-73
2021/03/03 10:17:00;;;;;;;73.95;37.10;;;;;;;;;;4990427;28;20508;-73
2021/03/03 10:19:26;;;;;;;72.68;35.88;;;;;;;;;;4989034;28;20613;-73
2021/03/03 10:21:52;;;;;;;70.00;38.53;;;;;;;;;;4989402;28;20037;-73
2021/03/03 10:24:19;;;;;;;72.10;37.70;;;;;;;;;;4990420;28;20027;-73
2021/03/03 10:26:47;;;;;;;72.22;39.13;;;;;;;;;;4988937;28;20128;-73
2021/03/03 10:29:31;;;;;;;66.63;34.63;;;;;;;;;;4990003;28;20038;-74
2021/03/03 10:32:27;;;;;;;61.03;33.25;;;;;;;;;;4989497;28;20034;-72
2021/03/03 10:35:00;;;;;;;60.97;34.35;;;;;;;;;;4984944;28;20038;-73
2021/03/03 10:37:26;;;;;;;60.30;34.17;;;;;;;;;;4987597;28;20035;-71
2021/03/03 10:39:53;;;;;;;60.40;32.55;;;;;;;;;;4988249;28;20030;-72
2021/03/03 10:42:23;;;;;;;60.70;33.97;;;;;;;;;;4988337;28;20030;-72
2021/03/03 10:44:52;;;;;;;;;;;;;;;;;;4987346;28;20080;-71
2021/03/03 10:47:38;;;;;;;59.70;32.33;;;;;;;;;;4985280;28;19914;-72
2021/03/03 10:50:05;;;;;;;64.18;32.65;;;;;;;;;;4988580;28;20026;-71
2021/03/03 10:52:31;;;;;;;61.38;32.25;;;;;;;;;;4987667;28;20425;-71
2021/03/03 10:54:57;;;;;;;60.47;30.67;;;;;;;;;;4984996;28;20106;-71
2021/03/03 10:57:25;;;;;;;56.47;30.92;;;;;;;;;;4991248;28;20049;-71
2021/03/03 11:00:01;;;;;;;58.53;30.50;;;;;;;;;;4985900;28;20019;-72
2021/03/03 11:02:27;;;;;;;57.00;28.90;;;;;;;;;;4994280;28;20063;-71
2021/03/03 11:04:53;;;;;;;61.55;32.83;;;;;;;;;;4989580;28;20037;-71
2021/03/03 11:07:19;;;;;;;59.63;31.90;;;;;;;;;;4989276;28;20065;-71
2021/03/03 11:09:50;;;;;;;61.58;33.03;;;;;;;;;;4991505;28;20108;-71
2021/03/03 11:12:21;;;;;;;58.42;31.40;;;;;;;;;;4988532;28;20022;-70
2021/03/03 11:14:47;;;;;;;59.10;32.17;;;;;;;;;;4987795;28;20018;-71
2021/03/03 11:17:16;;;;;;;64.28;33.63;;;;;;;;;;4986238;28;20026;-74
2021/03/03 11:19:42;;;;;;;64.53;33.28;;;;;;;;;;4989425;28;20029;-73
2021/03/03 11:22:08;;;;;;;59.70;31.73;;;;;;;;;;4989674;28;20034;-74
2021/03/03 11:24:34;;;;;;;57.33;32.13;;;;;;;;;;4988386;28;20030;-73
2021/03/03 11:27:00;;;;;;;57.40;30.25;;;;;;;;;;4992446;28;20040;-73
2021/03/03 11:29:26;;;;;;;57.08;32.22;;;;;;;;;;4990963;28;20033;-72
2021/03/03 11:31:51;;;;;;;60.80;32.60;;;;;;;;;;4987608;28;20049;-71
2021/03/03 11:34:17;;;;;;;59.63;31.42;;;;;;;;;;4989633;28;20498;-72
2021/03/03 11:36:43;;;;;;;60.40;31.17;;;;;;;;;;4990341;28;20026;-74
2021/03/03 11:39:10;;;;;;;60.05;30.75;;;;;;;;;;4988375;28;20030;-72
2021/03/03 11:41:36;;;;;;;50.05;29.17;;;;;;;;;;4988376;28;20492;-71
2021/03/03 11:44:02;;;;;;;56.95;31.05;;;;;;;;;;4988742;28;20053;-72
2021/03/03 11:46:28;;;;;;;57.90;29.20;;;;;;;;;;4987231;28;20530;-73
2021/03/03 11:48:54;;;;;;;55.88;29.73;;;;;;;;;;4987156;28;20019;-72
2021/03/03 11:51:20;;;;;;;49.22;27.75;;;;;;;;;;4988138;28;20393;-72
2021/03/03 11:53:46;;;;;;;51.50;28.48;;;;;;;;;;4988102;28;20116;-72
2021/03/03 11:56:12;;;;;;;53.75;27.33;;;;;;;;;;4988306;28;20038;-72
2021/03/03 11:58:38;;;;;;;49.85;29.55;;;;;;;;;;4989033;28;20042;-71
2021/03/03 12:01:04;;;;;;;50.85;30.02;;;;;;;;;;4981741;28;20035;-71
2021/03/03 12:03:30;;;;;;;49.08;27.85;;;;;;;;;;4991853;28;20030;-72
2021/03/03 12:05:56;;;;;;;53.30;31.85;;;;;;;;;;4992119;28;20035;-74
2021/03/03 12:08:22;;;;;;;57.30;30.92;;;;;;;;;;4992888;28;20096;-71
2021/03/03 12:10:48;;;;;;;52.63;29.05;;;;;;;;;;4992584;28;20026;-71
2021/03/03 12:13:14;;;;;;;47.40;26.83;;;;;;;;;;4991967;28;20404;-71
2021/03/03 12:15:40;;;;;;;54.90;30.92;;;;;;;;;;4991056;28;20066;-71
2021/03/03 12:18:06;;;;;;;47.92;28.17;;;;;;;;;;4991319;28;20380;-70
2021/03/03 12:20:33;;;;;;;49.63;27.90;;;;;;;;;;4992524;28;20030;-71
2021/03/03 12:22:59;;;;;;;46.45;26.02;;;;;;;;;;4992039;28;20241;-71
2021/03/03 12:25:25;;;;;;;53.42;30.40;;;;;;;;;;4991742;28;20226;-70
2021/03/03 12:27:51;;;;;;;54.80;30.27;;;;;;;;;;4991700;28;20129;-71
2021/03/03 12:30:18;;;;;;;55.13;30.40;;;;;;;;;;4991036;28;20120;-73
2021/03/03 12:32:44;;;;;;;51.85;30.23;;;;;;;;;;4993386;28;20026;-71
2021/03/03 12:35:10;;;;;;;56.08;30.65;;;;;;;;;;4992766;28;20026;-71
2021/03/03 12:37:36;;;;;;;58.80;31.80;;;;;;;;;;4991714;28;20058;-71
2021/03/03 12:40:03;;;;;;;58.08;31.88;;;;;;;;;;4991709;28;20066;-71
2021/03/03 12:42:29;;;;;;;55.42;30.73;;;;;;;;;;4990728;28;20027;-71
2021/03/03 12:44:55;;;;;;;56.40;31.00;;;;;;;;;;4992933;28;20034;-71
2021/03/03 12:47:21;;;;;;;55.20;30.63;;;;;;;;;;4992727;28;20247;-71
2021/03/03 12:49:47;;;;;;;56.28;30.60;;;;;;;;;;4993186;28;20456;-70
2021/03/03 12:52:13;;;;;;;56.20;31.85;;;;;;;;;;4995465;28;20129;-71
2021/03/03 12:54:39;;;;;;;55.53;30.35;;;;;;;;;;4997684;28;20070;-72
2021/03/03 12:57:08;;;;;;;55.95;32.15;;;;;;;;;;4991531;28;20105;-71
2021/03/03 12:59:34;;;;;;;56.13;31.27;;;;;;;;;;4992813;28;20092;-71
2021/03/03 13:02:00;;;;;;;53.20;29.85;;;;;;;;;;4982159;28;20773;-72
2021/03/03 13:04:26;;;;;;;54.15;30.17;;;;;;;;;;4997590;28;20113;-72
2021/03/03 13:06:52;;;;;;;59.15;31.88;;;;;;;;;;4993097;28;20077;-72
2021/03/03 13:09:18;;;;;;;62.72;33.75;;;;;;;;;;4992960;28;20061;-72
2021/03/03 13:11:44;;;;;;;55.38;32.30;;;;;;;;;;4995911;28;20034;-73
2021/03/03 13:14:10;;;;;;;60.22;32.20;;;;;;;;;;4994919;28;20105;-72
2021/03/03 13:16:36;;;;;;;60.78;31.67;;;;;;;;;;5011610;28;20037;-72
2021/03/03 13:19:02;;;;;;;60.33;32.08;;;;;;;;;;5006083;28;20026;-72
2021/03/03 13:21:28;;;;;;;59.33;32.83;;;;;;;;;;5006756;28;20338;-72
2021/03/03 13:23:54;;;;;;;59.30;31.13;;;;;;;;;;5006224;28;20045;-72
2021/03/03 13:26:20;;;;;;;58.20;31.48;;;;;;;;;;5007014;28;20034;-72
2021/03/03 13:28:46;;;;;;;60.63;31.38;;;;;;;;;;5005890;28;20027;-72
2021/03/03 13:31:12;;;;;;;54.47;29.98;;;;;;;;;;5006065;28;20090;-72
2021/03/03 13:33:38;;;;;;;59.92;30.65;;;;;;;;;;5005227;28;20104;-73
2021/03/03 13:36:04;;;;;;;56.35;30.25;;;;;;;;;;5005403;28;20026;-72
2021/03/03 13:38:30;;;;;;;57.90;30.33;;;;;;;;;;5006411;28;20030;-71
2021/03/03 13:40:56;;;;;;;51.30;28.17;;;;;;;;;;5007149;28;20082;-73
2021/03/03 13:43:22;;;;;;;62.92;31.95;;;;;;;;;;4993473;28;20401;-72
2021/03/03 13:45:48;;;;;;;57.38;31.02;;;;;;;;;;5004170;28;20025;-72
2021/03/03 13:48:14;;;;;;;54.60;28.67;;;;;;;;;;5006150;28;20038;-72
2021/03/03 13:50:40;;;;;;;52.97;29.42;;;;;;;;;;5000789;28;20034;-71
2021/03/03 13:53:06;;;;;;;57.55;30.73;;;;;;;;;;4989790;28;20022;-72
2021/03/03 13:55:32;;;;;;;53.53;31.45;;;;;;;;;;4989840;28;20076;-72
2021/03/03 13:57:58;;;;;;;57.45;30.40;;;;;;;;;;4988679;28;20026;-71
2021/03/03 14:00:25;;;;;;;60.75;31.90;;;;;;;;;;4989234;28;20057;-72
2021/03/03 14:02:51;;;;;;;54.30;30.30;;;;;;;;;;4989213;28;20243;-71
2021/03/03 14:05:17;;;;;;;55.55;30.83;;;;;;;;;;4990876;28;20455;-72
2021/03/03 14:07:43;;;;;;;55.53;29.95;;;;;;;;;;4981342;28;20113;-71
2021/03/03 14:10:09;;;;;;;61.58;31.73;;;;;;;;;;4989482;28;20069;-71
2021/03/03 14:12:35;;;;;;;67.10;34.00;;;;;;;;;;4987292;28;20080;-72
2021/03/03 14:15:01;;;;;;;62.55;33.97;;;;;;;;;;4988983;28;20022;-72
2021/03/03 14:17:27;;;;;;;61.03;32.70;;;;;;;;;;4989180;28;20030;-71